Time;durP1;ratioP1;P1;durP2;ratioP2;P2;SDS_P1;SDS_P2;PMS_P1;PMS_P2;Temp;Humidity;BMP_temperature;BMP_pressure;BME280_temperature;BME280_humidity;BME280_pressure;Samples;Min_cycle;Max_cycle;Signal;HPM_P1;HPM_P2
2023/07/04 00:01:18;;;;;;;4.90;1.60;;;16.60;94.70;;;;;;4869819;29;20043;-89
2023/07/04 00:03:45;;;;;;;3.97;1.48;;;16.60;94.70;;;;;;4868094;29;20049;-90
2023/07/04 00:06:14;;;;;;;6.30;1.75;;;16.60;94.80;;;;;;4847271;29;20085;-90
2023/07/04 00:08:40;;;;;;;3.85;1.30;;;16.50;94.80;;;;;;4863395;29;20511;-90
2023/07/04 00:11:07;;;;;;;4.82;1.58;;;16.50;94.90;;;;;;4846807;29;20069;-89
2023/07/04 00:13:35;;;;;;;4.93;1.83;;;16.50;94.90;;;;;;4846184;29;20432;-89
2023/07/04 00:16:05;;;;;;;4.10;1.70;;;16.60;95.10;;;;;;4827946;29;20141;-90
2023/07/04 00:18:36;;;;;;;3.90;1.60;;;16.60;95.10;;;;;;4843355;29;20048;-89
2023/07/04 00:21:03;;;;;;;3.55;1.45;;;16.60;95.20;;;;;;4858679;29;20045;-89
2023/07/04 00:23:33;;;;;;;3.05;1.48;;;16.60;95.20;;;;;;4828089;29;20034;-90
2023/07/04 00:26:00;;;;;;;4.35;1.83;;;16.60;95.20;;;;;;4844074;29;20041;-90
2023/07/04 00:28:26;;;;;;;5.13;1.55;;;16.60;95.20;;;;;;4843008;29;20122;-89
2023/07/04 00:30:54;;;;;;;3.47;1.27;;;16.50;95.10;;;;;;4843010;29;20487;-89
2023/07/04 00:33:25;;;;;;;4.88;1.85;;;16.50;95.20;;;;;;4828172;29;20034;-89
2023/07/04 00:36:03;;;;;;;3.75;1.30;;;16.50;95.20;;;;;;4843111;29;20086;-90
2023/07/04 00:38:33;;;;;;;3.63;1.40;;;16.50;95.20;;;;;;4843319;29;20034;-89
2023/07/04 00:41:15;;;;;;;6.25;1.48;;;16.50;95.10;;;;;;4844225;29;20026;-89
2023/07/04 00:44:08;;;;;;;4.20;1.50;;;16.60;95.10;;;;;;4828992;29;20498;-89
2023/07/04 00:46:41;;;;;;;4.85;1.33;;;16.50;95.10;;;;;;4843229;29;20430;-89
2023/07/04 00:49:18;;;;;;;4.90;1.60;;;16.60;95.20;;;;;;4843819;29;20061;-90
2023/07/04 00:52:04;;;;;;;3.92;1.20;;;16.60;95.20;;;;;;4858376;29;20447;-90
2023/07/04 00:54:40;;;;;;;4.82;1.65;;;16.50;95.10;;;;;;4842668;29;20034;-89
2023/07/04 00:57:07;;;;;;;5.50;1.45;;;16.50;95.10;;;;;;4842829;29;20117;-89
2023/07/04 00:59:45;;;;;;;3.60;1.35;;;16.50;95.10;;;;;;4827842;29;20383;-90
2023/07/04 01:02:21;;;;;;;6.43;1.77;;;16.50;95.10;;;;;;4842830;29;20026;-89
2023/07/04 01:04:49;;;;;;;3.25;1.63;;;16.50;95.20;;;;;;4843575;29;20037;-88
2023/07/04 01:07:24;;;;;;;3.65;1.65;;;16.50;95.20;;;;;;4842536;29;20029;-88
2023/07/04 01:10:32;;;;;;;4.93;1.70;;;16.50;95.20;;;;;;4842298;29;20025;-89
2023/07/04 01:12:58;;;;;;;4.60;1.40;;;16.50;95.40;;;;;;4843545;29;20045;-90
2023/07/04 01:15:25;;;;;;;7.13;2.00;;;16.50;95.40;;;;;;4828233;29;20111;-90
2023/07/04 01:17:51;;;;;;;3.90;1.42;;;16.50;95.40;;;;;;4861640;29;20026;-90
2023/07/04 01:20:18;;;;;;;5.97;2.25;;;16.40;95.50;;;;;;4831090;29;20040;-91
2023/07/04 01:23:10;;;;;;;2.72;1.67;;;16.40;95.60;;;;;;4846008;29;20034;-90
2023/07/04 01:25:46;;;;;;;5.25;2.10;;;16.40;95.70;;;;;;4845429;29;20049;-88
2023/07/04 01:28:13;;;;;;;5.53;2.17;;;16.40;95.80;;;;;;4846868;29;20087;-90
2023/07/04 01:30:41;;;;;;;6.32;2.15;;;16.40;95.80;;;;;;4861435;29;20121;-89
2023/07/04 01:33:08;;;;;;;6.22;2.00;;;16.40;95.90;;;;;;4845969;29;20114;-90
2023/07/04 01:35:35;;;;;;;5.65;2.15;;;16.40;96.00;;;;;;4846643;29;20129;-90
2023/07/04 01:38:00;;;;;;;5.90;2.30;;;16.40;96.10;;;;;;4842761;29;20036;-89
2023/07/04 01:40:27;;;;;;;7.95;2.20;;;16.40;96.20;;;;;;4882442;29;20049;-91
2023/07/04 01:42:53;;;;;;;6.68;2.38;;;16.50;96.20;;;;;;4869170;29;20022;-90
2023/07/04 01:45:19;;;;;;;7.32;2.13;;;16.50;96.30;;;;;;4869062;29;20020;-90
2023/07/04 01:47:46;;;;;;;7.50;2.45;;;16.50;96.40;;;;;;4868400;29;20058;-88
2023/07/04 01:50:13;;;;;;;6.65;2.15;;;16.50;96.40;;;;;;4847735;29;20041;-91
2023/07/04 01:52:40;;;;;;;7.30;2.63;;;16.50;96.50;;;;;;4830989;29;20506;-90
2023/07/04 01:55:08;;;;;;;6.45;2.30;;;16.50;96.60;;;;;;4861582;29;20038;-91
2023/07/04 01:57:34;;;;;;;6.50;2.53;;;16.50;96.60;;;;;;4845960;29;20122;-90
2023/07/04 01:59:59;;;;;;;8.23;2.28;;;16.50;96.70;;;;;;4845232;29;20480;-89
2023/07/04 02:02:25;;;;;;;8.52;2.88;;;16.60;96.70;;;;;;4846385;29;20034;-89
2023/07/04 02:04:51;;;;;;;5.43;2.05;;;16.60;96.70;;;;;;4830308;29;20125;-90
2023/07/04 02:07:19;;;;;;;6.68;2.50;;;16.60;96.80;;;;;;4845545;29;20030;-90
2023/07/04 02:09:45;;;;;;;7.80;2.55;;;16.60;96.80;;;;;;4845327;29;20461;-89
2023/07/04 02:12:11;;;;;;;8.40;2.30;;;16.60;96.70;;;;;;4845112;29;20030;-90
2023/07/04 02:14:36;;;;;;;6.35;2.10;;;16.60;96.70;;;;;;4845343;29;20133;-90
2023/07/04 02:17:04;;;;;;;7.40;2.20;;;16.60;96.70;;;;;;4844794;29;20064;-91
2023/07/04 02:19:30;;;;;;;5.10;2.30;;;16.60;96.70;;;;;;4860756;29;20045;-89
2023/07/04 02:21:56;;;;;;;8.70;2.40;;;16.70;96.70;;;;;;4845253;29;20038;-90
2023/07/04 02:24:21;;;;;;;5.40;1.92;;;16.60;97.00;;;;;;4846051;29;20361;-90
2023/07/04 02:26:47;;;;;;;6.28;2.28;;;16.60;96.70;;;;;;4845308;29;20050;-89
2023/07/04 02:29:13;;;;;;;6.60;2.00;;;16.60;96.70;;;;;;4829641;29;20205;-89
2023/07/04 02:31:39;;;;;;;7.82;2.22;;;16.60;96.80;;;;;;4828777;29;20434;-90
2023/07/04 02:34:04;;;;;;;5.68;1.98;;;16.60;96.80;;;;;;4844034;29;20120;-88
2023/07/04 02:36:30;;;;;;;5.97;1.90;;;16.60;96.80;;;;;;4860010;29;20030;-88
2023/07/04 02:38:55;;;;;;;5.18;2.05;;;16.60;96.80;;;;;;4845700;29;20427;-89
2023/07/04 02:41:21;;;;;;;6.75;2.20;;;16.60;96.80;;;;;;4829347;29;20549;-88
2023/07/04 02:43:47;;;;;;;7.60;2.30;;;16.60;96.80;;;;;;4860119;29;20029;-88
2023/07/04 02:46:15;;;;;;;7.45;2.25;;;16.60;96.80;;;;;;4844487;29;20064;-88
2023/07/04 02:48:41;;;;;;;6.93;2.70;;;16.60;96.80;;;;;;4829954;29;20026;-89
2023/07/04 02:51:07;;;;;;;6.82;2.17;;;16.60;96.70;;;;;;4844530;29;20025;-89
2023/07/04 02:53:33;;;;;;;7.43;2.20;;;16.60;96.70;;;;;;4829558;29;20038;-88
2023/07/04 02:55:58;;;;;;;9.18;2.60;;;16.60;96.70;;;;;;4844602;29;20030;-88
2023/07/04 02:58:24;;;;;;;6.55;2.20;;;16.60;96.70;;;;;;4844677;29;20026;-89
2023/07/04 03:00:53;;;;;;;6.03;2.22;;;16.50;96.70;;;;;;4844521;29;20594;-88
2023/07/04 03:03:18;;;;;;;5.63;2.38;;;16.50;96.70;;;;;;4844369;29;20026;-89
2023/07/04 03:05:45;;;;;;;5.40;1.90;;;16.50;96.70;;;;;;4860821;29;20040;-89
2023/07/04 03:08:10;;;;;;;6.78;1.88;;;16.50;96.70;;;;;;4844567;29;20054;-89
2023/07/04 03:10:36;;;;;;;8.40;2.05;;;16.50;96.70;;;;;;4844551;29;20540;-89
2023/07/04 03:13:02;;;;;;;3.83;1.80;;;16.40;96.60;;;;;;4859861;29;20033;-88
2023/07/04 03:15:27;;;;;;;4.25;1.98;;;16.40;96.60;;;;;;4861418;29;20052;-89
2023/07/04 03:17:56;;;;;;;6.63;1.90;;;16.40;96.60;;;;;;4830136;29;20076;-89
2023/07/04 03:20:22;;;;;;;5.30;2.05;;;16.30;96.60;;;;;;4830085;29;20049;-89
2023/07/04 03:22:47;;;;;;;6.53;2.00;;;16.30;96.60;;;;;;4849833;29;20038;-90
2023/07/04 03:25:15;;;;;;;7.18;2.10;;;16.30;96.60;;;;;;4836683;29;20038;-89
2023/07/04 03:27:41;;;;;;;5.22;1.75;;;16.20;96.60;;;;;;4845955;29;20037;-89
2023/07/04 03:30:09;;;;;;;6.35;2.03;;;16.20;96.70;;;;;;4846889;29;20018;-89
2023/07/04 03:32:34;;;;;;;4.07;2.00;;;16.20;96.70;;;;;;4861957;29;20030;-90
2023/07/04 03:35:01;;;;;;;5.38;1.75;;;16.20;96.70;;;;;;4860045;29;20532;-88
2023/07/04 03:37:34;;;;;;;6.43;2.00;;;16.20;96.70;;;;;;4843344;29;20105;-90
2023/07/04 03:40:02;;;;;;;4.53;2.05;;;16.20;96.80;;;;;;4844019;29;20026;-89
2023/07/04 03:42:28;;;;;;;7.15;1.67;;;16.20;96.80;;;;;;4859503;29;20532;-90
2023/07/04 03:44:54;;;;;;;9.05;2.42;;;16.20;96.80;;;;;;4859621;29;20118;-89
2023/07/04 03:47:19;;;;;;;3.97;1.90;;;16.20;96.80;;;;;;4843583;29;20017;-90
2023/07/04 03:49:45;;;;;;;4.35;1.60;;;16.20;96.80;;;;;;4843658;29;20117;-89
2023/07/04 03:52:11;;;;;;;4.25;1.65;;;16.10;96.80;;;;;;4843101;29;20034;-90
2023/07/04 03:54:37;;;;;;;5.90;2.08;;;16.20;96.80;;;;;;4843142;29;20034;-90
2023/07/04 03:57:03;;;;;;;4.80;1.83;;;16.10;96.80;;;;;;4843594;29;20124;-89
2023/07/04 03:59:29;;;;;;;4.00;1.92;;;16.10;96.90;;;;;;4843359;29;20026;-89
2023/07/04 04:01:54;;;;;;;5.80;1.83;;;16.20;96.90;;;;;;4858754;29;20026;-89
2023/07/04 04:04:20;;;;;;;6.07;2.05;;;16.10;96.90;;;;;;4828045;29;20061;-89
2023/07/04 04:06:51;;;;;;;4.75;1.67;;;16.10;97.00;;;;;;4843445;29;20037;-89
2023/07/04 04:09:16;;;;;;;8.95;2.35;;;16.10;97.00;;;;;;4844540;29;20029;-89
2023/07/04 04:11:42;;;;;;;6.65;2.17;;;16.10;97.00;;;;;;4828451;29;20029;-90
2023/07/04 04:14:11;;;;;;;6.22;2.25;;;16.20;97.40;;;;;;4858609;29;20074;-90
2023/07/04 04:16:39;;;;;;;7.07;2.33;;;16.10;97.10;;;;;;4842588;29;20054;-89
2023/07/04 04:19:04;;;;;;;7.95;2.50;;;16.10;97.20;;;;;;4843415;29;20063;-90
2023/07/04 04:21:30;;;;;;;8.13;2.40;;;16.20;97.30;;;;;;4827993;29;20128;-89
2023/07/04 04:23:56;;;;;;;12.15;2.88;;;16.20;97.30;;;;;;4828150;29;20034;-90
2023/07/04 04:26:24;;;;;;;7.93;2.67;;;16.20;97.30;;;;;;4844085;29;20385;-90
2023/07/04 04:28:55;;;;;;;5.88;2.35;;;16.20;97.40;;;;;;4842875;29;20078;-90
2023/07/04 04:31:21;;;;;;;7.45;2.80;;;16.20;97.40;;;;;;4842670;29;20026;-88
2023/07/04 04:33:47;;;;;;;7.00;2.67;;;16.30;97.50;;;;;;4827288;29;20106;-89
2023/07/04 04:36:17;;;;;;;9.07;3.00;;;16.30;97.50;;;;;;4842609;29;20125;-87
2023/07/04 04:38:43;;;;;;;15.03;3.13;;;16.30;97.50;;;;;;4827814;29;20544;-88
2023/07/04 04:41:09;;;;;;;8.55;3.03;;;16.30;97.50;;;;;;4827010;29;20063;-88
2023/07/04 04:43:35;;;;;;;9.27;3.08;;;16.30;97.50;;;;;;4842392;29;20082;-88
2023/07/04 04:46:02;;;;;;;8.68;3.25;;;16.40;97.60;;;;;;4841772;29;20030;-87
2023/07/04 04:48:35;;;;;;;9.10;3.97;;;16.40;97.60;;;;;;4842462;29;20032;-89
2023/07/04 04:51:10;;;;;;;7.63;3.88;;;16.40;97.60;;;;;;4846452;29;20536;-87
2023/07/04 04:53:41;;;;;;;10.68;3.38;;;16.50;97.70;;;;;;4849267;29;20037;-88
2023/07/04 04:56:10;;;;;;;;;;;16.40;97.70;;;;;;4850070;29;20026;-88
2023/07/04 04:58:36;;;;;;;11.70;4.25;;;16.50;97.70;;;;;;4848725;29;19939;-88
2023/07/04 05:01:16;;;;;;;10.48;3.67;;;16.50;97.80;;;;;;4848544;29;20476;-88
2023/07/04 05:03:45;;;;;;;10.63;3.45;;;16.50;97.80;;;;;;4848657;29;20025;-88
2023/07/04 05:06:12;;;;;;;10.93;4.03;;;16.60;97.80;;;;;;4848549;29;20038;-88
2023/07/04 05:08:38;;;;;;;10.10;3.67;;;16.60;97.80;;;;;;4848959;29;20456;-88
2023/07/04 05:11:07;;;;;;;9.32;4.03;;;16.70;97.80;;;;;;4834016;29;20033;-89
2023/07/04 05:13:34;;;;;;;8.27;3.78;;;16.70;97.90;;;;;;4858800;29;20026;-87
2023/07/04 05:16:05;;;;;;;12.00;3.85;;;16.70;98.10;;;;;;4855665;29;20046;-88
2023/07/04 05:18:32;;;;;;;10.75;3.80;;;16.80;97.90;;;;;;4872062;29;20054;-87
2023/07/04 05:21:07;;;;;;;11.80;3.95;;;16.80;97.90;;;;;;4855716;29;20041;-88
2023/07/04 05:23:35;;;;;;;10.88;3.95;;;16.80;97.90;;;;;;4871019;29;20036;-89
2023/07/04 05:26:06;;;;;;;12.00;4.03;;;16.80;98.00;;;;;;4849113;29;20033;-89
2023/07/04 05:28:32;;;;;;;13.80;4.28;;;16.80;98.00;;;;;;4848774;29;20022;-90
2023/07/04 05:31:03;;;;;;;12.75;4.00;;;16.80;98.00;;;;;;4849463;29;20117;-88
2023/07/04 05:33:28;;;;;;;;;;;16.90;98.00;;;;;;4848947;29;20032;-89
2023/07/04 05:36:13;;;;;;;12.40;4.53;;;16.90;97.90;;;;;;4863672;29;19908;-88
2023/07/04 05:38:39;;;;;;;13.73;4.45;;;16.90;98.00;;;;;;4848514;29;20022;-89
2023/07/04 05:41:10;;;;;;;12.18;4.15;;;17.00;98.00;;;;;;4848346;29;20029;-88
2023/07/04 05:43:36;;;;;;;;;;;17.00;98.30;;;;;;4849439;29;20118;-88
2023/07/04 05:46:02;;;;;;;12.85;4.63;;;17.00;98.00;;;;;;4832940;29;19912;-87
2023/07/04 05:48:28;;;;;;;9.93;4.03;;;17.10;98.10;;;;;;4847832;29;20026;-88
2023/07/04 05:51:00;;;;;;;10.40;4.32;;;17.10;98.10;;;;;;4847677;29;20061;-87
2023/07/04 05:53:27;;;;;;;13.93;4.40;;;17.20;98.20;;;;;;4848833;29;20091;-87
2023/07/04 05:56:10;;;;;;;13.20;4.88;;;17.20;98.10;;;;;;4847837;29;20030;-87
2023/07/04 05:58:38;;;;;;;13.57;4.75;;;17.20;98.20;;;;;;4848794;29;20496;-86
2023/07/04 06:01:17;;;;;;;15.85;4.82;;;17.20;98.10;;;;;;4832329;29;20370;-88
2023/07/04 06:03:45;;;;;;;14.23;5.15;;;17.30;98.10;;;;;;4844932;29;20026;-88
2023/07/04 06:06:29;;;;;;;10.82;4.72;;;17.30;98.10;;;;;;4829762;29;20086;-87
2023/07/04 06:08:57;;;;;;;13.70;4.95;;;17.30;98.10;;;;;;4844393;29;20041;-87
2023/07/04 06:11:26;;;;;;;13.60;4.18;;;17.30;98.10;;;;;;4860112;29;20045;-87
2023/07/04 06:13:51;;;;;;;13.10;4.72;;;17.30;98.00;;;;;;4860124;29;20465;-88
2023/07/04 06:16:18;;;;;;;12.20;4.30;;;17.30;98.00;;;;;;4844344;29;20133;-87
2023/07/04 06:18:43;;;;;;;13.23;4.60;;;17.30;98.00;;;;;;4844790;29;20041;-88
2023/07/04 06:21:12;;;;;;;12.13;4.72;;;17.30;98.00;;;;;;4845038;29;20038;-88
2023/07/04 06:23:39;;;;;;;15.60;4.93;;;17.40;98.00;;;;;;4844736;29;20116;-88
2023/07/04 06:26:05;;;;;;;11.40;4.30;;;17.40;98.00;;;;;;4844878;29;20063;-88
2023/07/04 06:28:32;;;;;;;11.88;4.85;;;17.40;98.10;;;;;;4844976;29;20159;-87
2023/07/04 06:31:03;;;;;;;17.48;5.00;;;17.50;98.10;;;;;;4844826;29;20041;-88
2023/07/04 06:33:29;;;;;;;15.93;5.32;;;17.50;98.10;;;;;;4830240;29;20045;-88
2023/07/04 06:35:55;;;;;;;13.10;4.65;;;17.60;98.10;;;;;;4829491;29;20058;-88
2023/07/04 06:38:22;;;;;;;11.85;4.80;;;17.50;98.10;;;;;;4844484;29;20034;-89
2023/07/04 06:40:56;;;;;;;12.95;4.88;;;17.60;98.20;;;;;;4845597;29;20101;-88
2023/07/04 06:43:23;;;;;;;15.38;4.90;;;17.70;98.20;;;;;;4845589;29;20083;-88
2023/07/04 06:45:49;;;;;;;14.52;4.85;;;17.70;98.20;;;;;;4829228;29;20034;-88
2023/07/04 06:48:14;;;;;;;11.00;4.63;;;17.80;98.20;;;;;;4844285;29;20117;-88
2023/07/04 06:50:42;;;;;;;11.57;4.40;;;17.90;98.20;;;;;;4844713;29;20065;-88
2023/07/04 06:53:08;;;;;;;17.25;5.00;;;17.90;98.20;;;;;;4829845;29;20046;-89
2023/07/04 06:55:33;;;;;;;12.10;4.68;;;18.00;98.20;;;;;;4829403;29;20045;-89
2023/07/04 06:57:59;;;;;;;11.60;4.30;;;18.00;98.10;;;;;;4829681;29;20030;-89
2023/07/04 07:00:25;;;;;;;13.55;4.30;;;18.10;98.10;;;;;;4830269;29;20504;-88
2023/07/04 07:02:50;;;;;;;11.23;4.15;;;18.20;98.00;;;;;;4852797;29;20090;-89
2023/07/04 07:05:18;;;;;;;10.13;3.75;;;18.20;97.90;;;;;;4851746;29;20071;-88
2023/07/04 07:07:46;;;;;;;11.55;4.63;;;18.20;97.80;;;;;;4867787;29;20021;-88
2023/07/04 07:10:12;;;;;;;14.98;4.47;;;18.30;97.80;;;;;;4867682;29;20014;-88
2023/07/04 07:12:38;;;;;;;17.13;4.97;;;18.30;97.60;;;;;;4866241;29;20045;-89
2023/07/04 07:15:04;;;;;;;12.27;4.15;;;18.30;97.40;;;;;;4845595;29;20054;-88
2023/07/04 07:17:32;;;;;;;13.07;4.78;;;18.30;97.40;;;;;;4829034;29;20054;-87
2023/07/04 07:19:58;;;;;;;15.00;4.80;;;18.30;97.30;;;;;;4845436;29;20026;-88
2023/07/04 07:22:24;;;;;;;13.70;5.15;;;18.30;97.30;;;;;;4828744;29;20034;-88
2023/07/04 07:24:49;;;;;;;13.63;4.68;;;18.30;97.30;;;;;;4828847;29;20086;-89
2023/07/04 07:27:15;;;;;;;13.38;4.40;;;18.30;97.20;;;;;;4828926;29;20224;-88
2023/07/04 07:29:41;;;;;;;9.27;3.33;;;18.40;97.20;;;;;;4859045;29;20030;-89
2023/07/04 07:32:07;;;;;;;10.38;3.75;;;18.50;97.20;;;;;;4843607;29;20043;-88
2023/07/04 07:34:33;;;;;;;12.65;4.25;;;18.60;97.10;;;;;;4858859;29;20033;-88
2023/07/04 07:36:59;;;;;;;15.18;4.38;;;18.60;96.90;;;;;;4828534;29;20037;-89
2023/07/04 07:39:24;;;;;;;10.40;3.47;;;18.60;96.60;;;;;;4843674;29;20041;-88
2023/07/04 07:41:52;;;;;;;9.93;3.80;;;18.60;96.50;;;;;;4828133;29;20041;-89
2023/07/04 07:44:18;;;;;;;12.70;4.28;;;18.60;96.50;;;;;;4843656;29;20034;-88
2023/07/04 07:46:45;;;;;;;13.02;3.97;;;18.70;96.50;;;;;;4843270;29;20029;-88
2023/07/04 07:49:10;;;;;;;11.23;3.78;;;18.70;96.60;;;;;;4844091;29;20026;-88
2023/07/04 07:51:40;;;;;;;12.73;3.10;;;18.80;96.40;;;;;;4827927;29;20042;-87
2023/07/04 07:54:10;;;;;;;10.18;3.17;;;18.80;96.20;;;;;;4843451;29;20042;-89
2023/07/04 07:56:40;;;;;;;10.32;3.22;;;18.80;96.10;;;;;;4828664;29;20034;-87
2023/07/04 07:59:06;;;;;;;9.02;3.17;;;18.80;95.90;;;;;;4844076;29;20062;-88
2023/07/04 08:01:33;;;;;;;9.48;3.47;;;18.90;95.80;;;;;;4844158;29;20424;-88
2023/07/04 08:04:00;;;;;;;15.13;3.22;;;18.90;95.70;;;;;;4842972;29;20025;-88
2023/07/04 08:06:33;;;;;;;10.00;3.38;;;18.90;95.50;;;;;;4842789;29;20037;-87
2023/07/04 08:09:01;;;;;;;10.15;3.58;;;18.90;95.40;;;;;;4844081;29;20421;-87
2023/07/04 08:11:27;;;;;;;9.25;3.22;;;18.90;95.40;;;;;;4842786;29;20121;-86
2023/07/04 08:13:55;;;;;;;10.18;3.50;;;18.90;95.30;;;;;;4842992;29;20033;-88
2023/07/04 08:16:39;;;;;;;7.88;3.20;;;19.00;95.20;;;;;;4858181;29;20093;-88
2023/07/04 08:19:05;;;;;;;10.82;3.10;;;19.10;95.20;;;;;;4842821;29;20034;-87
2023/07/04 08:21:31;;;;;;;9.55;3.00;;;19.20;94.90;;;;;;4858033;29;20415;-88
2023/07/04 08:23:58;;;;;;;10.85;3.25;;;19.20;94.40;;;;;;4842967;29;20041;-87
2023/07/04 08:26:25;;;;;;;8.60;2.85;;;19.20;94.20;;;;;;4827039;29;20086;-88
2023/07/04 08:28:55;;;;;;;10.43;3.10;;;19.20;94.20;;;;;;4842549;29;20045;-88
2023/07/04 08:31:22;;;;;;;9.00;2.85;;;19.20;94.10;;;;;;4857516;29;20041;-87
2023/07/04 08:33:49;;;;;;;10.43;2.63;;;19.30;93.80;;;;;;4842384;29;20045;-87
2023/07/04 08:36:16;;;;;;;8.73;2.58;;;19.20;93.70;;;;;;4842589;29;20030;-87
2023/07/04 08:38:45;;;;;;;7.00;2.90;;;19.20;93.50;;;;;;4827425;29;20030;-87
2023/07/04 08:41:17;;;;;;;7.38;2.50;;;19.20;93.30;;;;;;4843522;29;20387;-89
2023/07/04 08:44:08;;;;;;;8.57;3.00;;;19.20;93.30;;;;;;4843610;29;20062;-87
2023/07/04 08:46:40;;;;;;;8.38;2.72;;;19.20;93.10;;;;;;4843975;29;20030;-87
2023/07/04 08:49:17;;;;;;;8.85;2.47;;;19.20;93.10;;;;;;4842951;29;20385;-87
2023/07/04 08:51:52;;;;;;;8.27;3.33;;;19.20;93.10;;;;;;4858618;29;20038;-87
2023/07/04 08:54:17;;;;;;;9.15;2.65;;;19.20;93.00;;;;;;4857300;29;20047;-87
2023/07/04 08:56:45;;;;;;;7.97;2.80;;;19.30;93.00;;;;;;4850006;29;20018;-87
2023/07/04 08:59:45;;;;;;;6.82;2.33;;;19.30;93.10;;;;;;4850360;29;20042;-87
2023/07/04 09:02:32;;;;;;;8.63;2.50;;;19.30;93.10;;;;;;4834016;29;20050;-85
2023/07/04 09:05:16;;;;;;;7.10;2.15;;;19.40;93.10;;;;;;4854691;29;20037;-88
2023/07/04 09:07:58;;;;;;;5.63;2.38;;;19.50;93.10;;;;;;4842790;29;20443;-87
2023/07/04 09:10:38;;;;;;;9.25;2.50;;;19.60;93.20;;;;;;4843409;29;20063;-87
2023/07/04 09:13:06;;;;;;;;;;;19.70;93.10;;;;;;4842325;29;20030;-87
2023/07/04 09:15:36;;;;;;;6.75;2.20;;;19.80;93.00;;;;;;4857795;29;19918;-87
2023/07/04 09:18:08;;;;;;;6.68;2.40;;;19.80;92.40;;;;;;4860333;29;20081;-88
2023/07/04 09:20:46;;;;;;;7.28;2.20;;;19.90;92.00;;;;;;4844945;29;20440;-86
2023/07/04 09:23:17;;;;;;;6.18;2.50;;;19.90;92.00;;;;;;4845090;29;20428;-89
2023/07/04 09:25:43;;;;;;;5.43;1.77;;;19.90;91.90;;;;;;4844915;29;20464;-87
2023/07/04 09:28:08;;;;;;;6.55;2.30;;;20.00;91.80;;;;;;4829667;29;20036;-87
2023/07/04 09:30:35;;;;;;;7.53;2.40;;;20.00;91.80;;;;;;4844906;29;20033;-86
2023/07/04 09:33:01;;;;;;;5.20;2.20;;;20.00;91.60;;;;;;4860922;29;20033;-87
2023/07/04 09:35:26;;;;;;;4.47;2.13;;;20.00;91.40;;;;;;4829951;29;20460;-87
2023/07/04 09:37:56;;;;;;;6.30;2.17;;;20.10;91.60;;;;;;4847868;29;20040;-87
2023/07/04 09:40:43;;;;;;;7.75;2.10;;;20.10;91.60;;;;;;4848297;29;20444;-87
2023/07/04 09:43:11;;;;;;;7.43;1.85;;;20.20;91.50;;;;;;4864948;29;20033;-88
2023/07/04 09:45:37;;;;;;;5.43;2.00;;;20.20;91.40;;;;;;4847931;29;20021;-85
2023/07/04 09:48:05;;;;;;;8.73;2.53;;;20.30;91.30;;;;;;4848290;29;20041;-87
2023/07/04 09:50:37;;;;;;;14.73;1.83;;;20.40;90.90;;;;;;4847953;29;20502;-88
2023/07/04 09:53:09;;;;;;;5.55;1.83;;;20.40;90.80;;;;;;4847926;29;20032;-87
2023/07/04 09:55:40;;;;;;;6.97;1.90;;;20.40;90.80;;;;;;4864646;29;20112;-88
2023/07/04 09:58:23;;;;;;;4.18;2.17;;;20.50;90.90;;;;;;4864457;29;20026;-87
2023/07/04 10:01:08;;;;;;;8.52;2.00;;;20.60;90.50;;;;;;4847623;29;20026;-88
2023/07/04 10:03:37;;;;;;;6.97;1.60;;;20.70;90.50;;;;;;4864315;29;20018;-87
2023/07/04 10:06:03;;;;;;;5.63;2.30;;;20.70;90.50;;;;;;4832757;29;20064;-88
2023/07/04 10:08:29;;;;;;;5.32;2.28;;;20.70;90.30;;;;;;4863004;29;20040;-88
2023/07/04 10:10:58;;;;;;;6.40;2.63;;;20.80;90.20;;;;;;4832280;29;20124;-88
2023/07/04 10:13:37;;;;;;;6.55;2.22;;;20.80;89.60;;;;;;4847513;29;20543;-86
2023/07/04 10:16:19;;;;;;;6.07;1.83;;;20.80;89.40;;;;;;4847384;29;20037;-87
2023/07/04 10:18:44;;;;;;;6.07;2.17;;;20.90;89.80;;;;;;4847461;29;20079;-86
2023/07/04 10:21:10;;;;;;;6.88;2.30;;;21.00;89.80;;;;;;4833135;29;20065;-87
2023/07/04 10:23:36;;;;;;;5.18;1.80;;;21.00;89.10;;;;;;4862672;29;20486;-87
2023/07/04 10:26:05;;;;;;;7.95;2.58;;;21.00;88.70;;;;;;4862804;29;20068;-87
2023/07/04 10:28:32;;;;;;;7.00;2.60;;;21.00;88.40;;;;;;4862482;29;20026;-88
2023/07/04 10:31:02;;;;;;;8.35;2.53;;;21.00;88.40;;;;;;4863323;29;20078;-87
2023/07/04 10:33:37;;;;;;;6.22;2.03;;;21.00;87.70;;;;;;4864237;29;20034;-86
2023/07/04 10:36:04;;;;;;;6.25;1.80;;;21.10;87.80;;;;;;4862716;29;20025;-87
2023/07/04 10:38:48;;;;;;;6.43;2.38;;;21.10;87.30;;;;;;4832467;29;20029;-87
2023/07/04 10:41:29;;;;;;;6.25;2.20;;;21.10;85.40;;;;;;4862939;29;20165;-87
2023/07/04 10:44:00;;;;;;;7.68;2.08;;;21.10;85.70;;;;;;4847848;29;20033;-86
2023/07/04 10:46:29;;;;;;;6.53;2.00;;;21.10;85.90;;;;;;4850507;29;20025;-88
2023/07/04 10:49:01;;;;;;;6.38;2.20;;;21.10;86.10;;;;;;4879132;29;20033;-86
2023/07/04 10:51:35;;;;;;;6.43;2.00;;;21.10;83.40;;;;;;4886737;29;20021;-87
2023/07/04 10:54:00;;;;;;;5.50;1.80;;;21.00;82.50;;;;;;4886775;29;20017;-86
2023/07/04 10:56:32;;;;;;;4.75;1.67;;;21.00;82.90;;;;;;4851108;29;20132;-87
2023/07/04 10:59:26;;;;;;;3.80;1.85;;;21.00;83.30;;;;;;4872955;29;20030;-86
2023/07/04 11:02:00;;;;;;;3.65;1.70;;;21.00;83.60;;;;;;4866772;29;20053;-86
2023/07/04 11:04:47;;;;;;;;;;;;;;;;;;;;;
2023/07/04 11:07:22;;;;;;;7.25;2.22;;;21.10;83.90;;;;;;4863731;29;20029;-88
2023/07/04 11:09:55;;;;;;;4.03;1.63;;;21.20;84.40;;;;;;4846664;29;20476;-87
2023/07/04 11:12:27;;;;;;;4.13;2.03;;;21.30;84.70;;;;;;4846928;29;20449;-86
2023/07/04 11:15:01;;;;;;;4.97;2.17;;;21.30;84.40;;;;;;4846738;29;20097;-87
2023/07/04 11:17:34;;;;;;;4.43;1.83;;;21.40;84.20;;;;;;4843164;29;20042;-86
2023/07/04 11:20:15;;;;;;;4.95;1.80;;;21.40;84.10;;;;;;4843526;29;20029;-87
2023/07/04 11:22:51;;;;;;;4.90;1.75;;;21.50;84.00;;;;;;4843669;29;20057;-88
2023/07/04 11:25:30;;;;;;;3.88;1.60;;;21.40;83.50;;;;;;4843630;29;20069;-88
2023/07/04 11:28:25;;;;;;;4.80;1.80;;;21.50;82.40;;;;;;4843200;29;20078;-87
2023/07/04 11:31:06;;;;;;;7.10;1.73;;;21.50;81.20;;;;;;4844230;29;20155;-87
2023/07/04 11:33:41;;;;;;;4.85;1.70;;;21.50;81.00;;;;;;4844458;29;20033;-87
2023/07/04 11:36:23;;;;;;;8.32;2.00;;;21.50;81.40;;;;;;4844269;29;20494;-87
2023/07/04 11:38:56;;;;;;;5.80;1.65;;;21.60;80.70;;;;;;4843432;29;20051;-87
2023/07/04 11:41:36;;;;;;;5.50;1.83;;;21.60;80.70;;;;;;4843311;29;20034;-87
2023/07/04 11:44:14;;;;;;;3.90;1.70;;;21.70;81.00;;;;;;4842872;29;20026;-87
2023/07/04 11:46:42;;;;;;;4.97;2.00;;;21.70;81.20;;;;;;4843204;29;20034;-87
2023/07/04 11:49:18;;;;;;;5.60;1.67;;;21.80;81.40;;;;;;4843061;29;20026;-87
2023/07/04 11:51:44;;;;;;;3.95;1.48;;;21.70;81.10;;;;;;4844160;29;20033;-88
2023/07/04 11:54:11;;;;;;;6.05;2.00;;;21.70;80.50;;;;;;4842809;29;20492;-86
2023/07/04 11:56:41;;;;;;;7.47;1.77;;;21.60;80.60;;;;;;4842477;29;20038;-86
2023/07/04 11:59:18;;;;;;;3.75;1.70;;;21.60;80.00;;;;;;4842529;29;20087;-87
2023/07/04 12:01:56;;;;;;;5.22;1.60;;;21.50;80.00;;;;;;4844120;29;20105;-87
2023/07/04 12:04:44;;;;;;;3.42;1.38;;;21.50;79.90;;;;;;4843969;29;20026;-87
2023/07/04 12:07:39;;;;;;;3.10;1.40;;;21.50;80.40;;;;;;4842644;29;20049;-86
2023/07/04 12:10:17;;;;;;;4.43;1.40;;;21.60;80.30;;;;;;4842662;29;20102;-87
2023/07/04 12:12:44;;;;;;;5.20;2.03;;;21.60;80.30;;;;;;4842818;29;20030;-87
2023/07/04 12:15:12;;;;;;;6.05;1.85;;;21.70;80.30;;;;;;4842649;29;20038;-87
2023/07/04 12:17:44;;;;;;;5.53;1.92;;;21.80;80.60;;;;;;4842160;29;20062;-87
2023/07/04 12:20:13;;;;;;;3.97;1.75;;;21.90;80.40;;;;;;4843694;29;20030;-88
2023/07/04 12:22:54;;;;;;;4.72;1.80;;;21.90;80.70;;;;;;4843817;29;20091;-86
2023/07/04 12:25:28;;;;;;;4.10;1.77;;;22.00;81.00;;;;;;4842517;29;20121;-87
2023/07/04 12:27:59;;;;;;;2.95;1.60;;;22.10;80.80;;;;;;4843636;29;20476;-85
2023/07/04 12:30:26;;;;;;;5.72;1.65;;;22.20;80.90;;;;;;4842809;29;20057;-87
2023/07/04 12:32:52;;;;;;;7.93;1.70;;;22.20;80.70;;;;;;4827721;29;20045;-87
2023/07/04 12:35:22;;;;;;;5.13;1.80;;;22.20;80.50;;;;;;4828157;29;20037;-87
2023/07/04 12:37:50;;;;;;;3.33;1.80;;;22.20;80.60;;;;;;4844989;29;20372;-87
2023/07/04 12:40:20;;;;;;;5.07;1.90;;;22.20;80.80;;;;;;4829374;29;20089;-87
2023/07/04 12:42:46;;;;;;;5.82;1.70;;;22.20;80.70;;;;;;4845582;29;20126;-87
2023/07/04 12:45:23;;;;;;;5.72;1.80;;;22.30;79.90;;;;;;4830605;29;20030;-87
2023/07/04 12:47:51;;;;;;;6.68;1.95;;;22.20;79.50;;;;;;4863522;29;20034;-87
2023/07/04 12:50:19;;;;;;;5.38;1.60;;;22.20;80.00;;;;;;4878666;29;20010;-87
2023/07/04 12:52:47;;;;;;;4.68;1.70;;;22.20;80.10;;;;;;4863455;29;20035;-88
2023/07/04 12:55:30;;;;;;;4.82;1.80;;;22.30;80.00;;;;;;4846885;29;20105;-87
2023/07/04 12:57:56;;;;;;;3.30;1.42;;;22.30;79.80;;;;;;4874823;29;20030;-87
2023/07/04 13:00:32;;;;;;;3.60;1.48;;;22.30;80.80;;;;;;4843898;29;20105;-87